KSLC

Salt Lake City International Airport

Salt Lake City, Utah, USA
METAR KSLC 170354Z 07003KT 10SM CLR 08/M03 A3028 RMK AO2 SLP246 T00831033
Observed Flight Rules
Oct-17 @ 03:54 UTC (13 minutes ago) Visual Flight Rules
Wind Visibility Clouds
70° at 3 knots 10 miles
  • Clear skies
Temperatures Readings
Current 8°C / 46°F
Dewpoint -3°C / 27°F
Humidity 46%
Altimeter 30.28" Hg
Pressure 1024.6 hPa
Elevation 1286
METAR KSLC 170354Z 07003KT 10SM CLR 08/M03 A3028 RMK AO2 SLP246 T00831033
Observed Flight Rules
Oct-17 @ 03:54 UTC
(13 minutes ago)
VFR
Wind Visibility
70° at 3 knots 10 miles
Clouds
  • Clear skies
Temperature Dewpoint
8°C / 46°F -3°C / 27°F
Humidity Altimeter Pressure
46% 30.28" Hg 1024.6 hPa